createdAt,value
2022-07-27T00:01:01.137Z,102120.50
2022-07-27T00:05:50.712Z,102118.75
2022-07-27T00:10:40.728Z,102120.50
2022-07-27T00:15:33.068Z,102121.38
2022-07-27T00:20:22.833Z,102122.22
2022-07-27T00:25:16.919Z,102126.53
2022-07-27T00:30:06.705Z,102115.22
2022-07-27T00:34:58.771Z,102111.72
2022-07-27T00:39:48.414Z,102116.91
2022-07-27T00:44:38.121Z,102115.19
2022-07-27T00:49:29.745Z,102114.25
2022-07-27T00:54:22.296Z,102111.63
2022-07-27T00:59:13.455Z,102110.69
2022-07-27T01:04:03.228Z,102114.16
2022-07-27T01:09:14.260Z,102111.50
2022-07-27T01:14:06.469Z,102121.06
2022-07-27T01:18:55.855Z,102114.97
2022-07-27T01:23:47.984Z,102108.03
2022-07-27T01:28:37.404Z,102112.38
2022-07-27T01:33:28.603Z,102114.97
2022-07-27T01:38:18.108Z,102106.31
2022-07-27T01:43:10.195Z,102111.53
2022-07-27T01:47:59.572Z,102104.59
2022-07-27T01:52:49.176Z,102095.94
2022-07-27T01:57:39.025Z,102102.88
2022-07-27T02:02:31.195Z,102102.00
2022-07-27T02:07:20.675Z,102101.13
2022-07-27T02:12:22.756Z,102096.75
2022-07-27T02:17:12.918Z,102094.09
2022-07-27T02:22:07.261Z,102089.72
2022-07-27T02:26:56.691Z,102095.78
2022-07-27T02:31:46.617Z,102093.13
2022-07-27T02:36:36.022Z,102092.22
2022-07-27T02:41:28.206Z,102091.31
2022-07-27T02:46:17.724Z,102086.94
2022-07-27T02:51:07.275Z,102086.03
2022-07-27T02:55:56.752Z,102077.34
2022-07-27T03:00:49.041Z,102078.19
2022-07-27T03:05:39.496Z,102084.22
2022-07-27T03:10:29.015Z,102085.06
2022-07-27T03:15:18.585Z,102082.38
2022-07-27T03:20:12.148Z,102083.25
2022-07-27T03:25:01.544Z,102079.72
2022-07-27T03:29:51.022Z,102084.06
2022-07-27T03:34:40.377Z,102084.03
2022-07-27T03:39:32.580Z,102083.19
2022-07-27T03:44:22.012Z,102083.16
2022-07-27T03:49:14.903Z,102086.69
2022-07-27T03:54:05.185Z,102090.19
2022-07-27T03:58:57.481Z,102095.34
2022-07-27T04:03:47.571Z,102089.28
2022-07-27T04:08:37.881Z,102101.47
2022-07-27T04:13:29.481Z,102104.97
2022-07-27T04:18:22.691Z,102098.91
2022-07-27T04:23:12.413Z,102106.75
2022-07-27T04:28:01.850Z,102105.91
2022-07-27T04:32:51.449Z,102109.41
2022-07-27T04:37:58.521Z,102098.13
2022-07-27T04:42:49.833Z,102107.72
2022-07-27T04:47:39.450Z,102112.97
2022-07-27T04:52:28.901Z,102115.63
2022-07-27T04:57:21.044Z,102116.53
2022-07-27T05:02:10.420Z,102120.91
2022-07-27T05:06:59.887Z,102116.59
2022-07-27T05:11:51.039Z,102121.81
2022-07-27T05:16:44.467Z,102117.50
2022-07-27T05:21:34.077Z,102133.16
2022-07-27T05:26:25.559Z,102138.38
2022-07-27T05:31:16.469Z,102149.72
2022-07-27T05:36:10.702Z,102153.19
2022-07-27T05:41:01.247Z,102145.38
2022-07-27T05:45:52.347Z,102149.75
2022-07-27T05:50:41.932Z,102151.47
2022-07-27T05:55:38.492Z,102159.34
2022-07-27T06:00:28.940Z,102159.34
2022-07-27T06:05:18.336Z,102158.50
2022-07-27T06:10:09.571Z,102162.88
2022-07-27T06:15:01.956Z,102157.72
2022-07-27T06:19:51.447Z,102152.56
2022-07-27T06:24:57.289Z,102158.69
2022-07-27T06:29:46.932Z,102159.56
2022-07-27T06:34:46.783Z,102155.28
2022-07-27T06:39:39.597Z,102169.19
2022-07-27T06:44:29.071Z,102171.81
2022-07-27T06:49:18.809Z,102170.13
2022-07-27T06:54:11.455Z,102172.72
2022-07-27T06:59:01.264Z,102182.28
2022-07-27T07:03:51.019Z,102174.47
2022-07-27T07:08:40.461Z,102181.44
2022-07-27T07:13:37.273Z,102190.16
2022-07-27T07:18:27.951Z,102191.03
2022-07-27T07:23:18.707Z,102192.81
2022-07-27T07:28:09.552Z,102194.56
2022-07-27T07:33:01.894Z,102192.81
2022-07-27T07:37:51.993Z,102212.00
2022-07-27T07:42:55.335Z,102198.97
2022-07-27T07:47:44.852Z,102212.88
2022-07-27T07:52:37.433Z,102204.19
2022-07-27T07:57:28.149Z,102207.66
2022-07-27T08:02:17.764Z,102205.91
2022-07-27T08:07:07.816Z,102212.00
2022-07-27T08:11:59.941Z,102212.91
2022-07-27T08:16:49.414Z,102206.78
2022-07-27T08:21:42.009Z,102213.78
2022-07-27T08:26:31.462Z,102218.13
2022-07-27T08:31:26.526Z,102223.34
2022-07-27T08:36:35.455Z,102225.94
2022-07-27T08:41:26.929Z,102225.94
2022-07-27T08:46:20.099Z,102225.03
2022-07-27T08:51:12.601Z,102229.38
2022-07-27T08:56:02.501Z,102224.94
2022-07-27T09:00:52.516Z,102211.72
2022-07-27T09:05:44.188Z,102217.50
2022-07-27T09:10:38.397Z,102211.69
2022-07-27T09:15:34.527Z,102215.53
2022-07-27T09:20:24.554Z,102209.06
2022-07-27T09:25:15.228Z,102218.44
2022-07-27T09:30:09.036Z,102206.06
2022-07-27T09:34:58.526Z,102207.72
2022-07-27T09:39:48.122Z,102195.13
2022-07-27T09:44:43.651Z,102190.47
2022-07-27T09:49:37.459Z,102195.38
2022-07-27T09:54:27.532Z,102205.94
2022-07-27T09:59:20.806Z,102208.13
2022-07-27T10:04:11.692Z,102211.34
2022-07-27T10:09:04.752Z,102208.28
2022-07-27T10:13:55.435Z,102203.78
2022-07-27T10:18:55.585Z,102198.22
2022-07-27T10:23:56.178Z,102194.88
2022-07-27T10:28:58.837Z,102184.75
2022-07-27T10:33:49.640Z,102188.38
2022-07-27T10:38:48.743Z,102177.84
2022-07-27T10:43:38.737Z,102173.47
2022-07-27T10:48:47.801Z,102173.25
2022-07-27T10:54:09.388Z,102177.66
2022-07-27T10:58:52.535Z,102174.25
2022-07-27T11:03:49.532Z,102176.72
2022-07-27T11:08:47.068Z,102178.31
2022-07-27T11:13:39.063Z,102180.06
2022-07-27T11:18:29.362Z,102183.53
2022-07-27T11:23:50.457Z,102180.63
2022-07-27T11:28:34.945Z,102188.44
2022-07-27T11:33:24.621Z,102180.97
2022-07-27T11:38:14.083Z,102183.00
2022-07-27T11:43:07.455Z,102182.22
2022-07-27T11:48:02.099Z,102167.38
2022-07-27T11:53:01.533Z,102169.84
2022-07-27T11:57:51.403Z,102170.03
2022-07-27T12:02:50.361Z,102184.06
2022-07-27T12:07:41.876Z,102193.59
2022-07-27T12:12:32.021Z,102187.13
2022-07-27T12:17:23.795Z,102185.06
2022-07-27T12:22:16.026Z,102180.50
2022-07-27T12:27:09.984Z,102171.53
2022-07-27T12:32:04.150Z,102171.97
2022-07-27T12:36:53.649Z,102166.50
2022-07-27T12:41:46.121Z,102154.84
2022-07-27T12:46:35.688Z,102158.25
2022-07-27T12:51:26.483Z,102155.59
2022-07-27T12:56:16.038Z,102144.94
2022-07-27T13:01:19.734Z,102141.66
2022-07-27T13:06:13.073Z,102140.50
2022-07-27T13:11:02.730Z,102128.28
2022-07-27T13:15:52.137Z,102133.50
2022-07-27T13:20:44.904Z,102126.06
2022-07-27T13:25:37.266Z,102121.31
2022-07-27T13:30:31.084Z,102114.97
2022-07-27T13:35:20.596Z,102116.50
2022-07-27T13:40:13.191Z,102120.97
2022-07-27T13:45:09.767Z,102104.13
2022-07-27T13:50:00.593Z,102109.06
2022-07-27T13:54:50.130Z,102116.78
2022-07-27T13:59:48.011Z,102105.50
2022-07-27T14:04:38.339Z,102119.78
2022-07-27T14:09:57.735Z,102108.66
2022-07-27T14:14:49.861Z,102108.13
2022-07-27T14:19:39.360Z,102108.25
2022-07-27T14:24:28.838Z,102093.91
2022-07-27T14:29:18.362Z,102096.69
2022-07-27T14:34:10.688Z,102100.75
2022-07-27T14:39:00.138Z,102096.03
2022-07-27T14:43:51.199Z,102105.34
2022-07-27T14:53:52.757Z,102092.81
2022-07-27T14:58:44.044Z,102096.03
2022-07-27T15:03:33.511Z,102088.00
2022-07-27T15:08:24.661Z,102095.53
2022-07-27T15:13:16.829Z,102083.63
2022-07-27T15:18:07.991Z,102080.38
2022-07-27T15:22:58.963Z,102083.88
2022-07-27T15:27:48.533Z,102081.38
2022-07-27T15:32:40.838Z,102086.19
2022-07-27T15:37:30.368Z,102077.97
2022-07-27T15:42:22.365Z,102074.66
2022-07-27T15:47:12.934Z,102071.44
2022-07-27T15:52:05.055Z,102070.81
2022-07-27T15:56:54.496Z,102073.19
2022-07-27T16:01:44.134Z,102060.66
2022-07-27T16:06:39.042Z,102062.91
2022-07-27T16:11:32.420Z,102055.72
2022-07-27T16:16:25.221Z,102063.19
2022-07-27T16:21:14.694Z,102061.56
2022-07-27T16:26:05.896Z,102055.63
2022-07-27T16:30:58.570Z,102052.94
2022-07-27T16:35:48.046Z,102051.16
2022-07-27T16:40:37.821Z,102051.97
2022-07-27T16:45:27.597Z,102048.44
2022-07-27T16:50:20.082Z,102040.69
2022-07-27T16:55:16.230Z,102038.28
2022-07-27T17:00:08.033Z,102037.75
2022-07-27T17:04:58.015Z,102032.56
2022-07-27T17:09:50.188Z,102034.78
2022-07-27T17:14:44.318Z,102030.56
2022-07-27T17:19:34.440Z,102030.69
2022-07-27T17:24:24.980Z,102035.13
2022-07-27T17:29:17.385Z,102036.22
2022-07-27T17:34:06.970Z,102028.59
2022-07-27T17:38:56.417Z,102027.00
2022-07-27T17:43:46.276Z,102025.28
2022-07-27T17:48:38.645Z,102022.84
2022-07-27T17:53:31.575Z,102020.09
2022-07-27T17:58:21.267Z,102016.81
2022-07-27T18:03:12.938Z,102024.00
2022-07-27T18:08:10.859Z,102017.91
2022-07-27T18:13:00.380Z,102015.38
2022-07-27T18:17:50.137Z,102020.63
2022-07-27T18:22:39.990Z,102020.81
2022-07-27T18:27:34.884Z,102028.09
2022-07-27T18:32:27.202Z,102026.63
2022-07-27T18:37:17.953Z,102031.00
2022-07-27T18:42:12.050Z,102037.25
2022-07-27T18:47:04.369Z,102035.66
2022-07-27T18:51:54.063Z,102039.38
2022-07-27T18:56:43.650Z,102049.09
2022-07-27T19:01:34.041Z,102043.09
2022-07-27T19:06:28.658Z,102044.13
2022-07-27T19:11:21.734Z,102057.25
2022-07-27T19:16:11.613Z,102058.25
2022-07-27T19:21:02.936Z,102053.97
2022-07-27T19:26:00.835Z,102063.69
2022-07-27T19:30:50.493Z,102067.31
2022-07-27T19:35:40.523Z,102058.63
2022-07-27T19:40:46.153Z,102064.78
2022-07-27T19:45:42.117Z,102072.66
2022-07-27T19:50:31.906Z,102064.81
2022-07-27T19:55:21.718Z,102066.66
2022-07-27T20:00:11.928Z,102080.66
2022-07-27T20:05:04.865Z,102082.44
2022-07-27T20:09:55.232Z,102081.63
2022-07-27T20:14:48.152Z,102089.47
2022-07-27T20:19:49.249Z,102089.50
2022-07-27T20:24:41.299Z,102085.22
2022-07-27T20:29:31.747Z,102081.84
2022-07-27T20:34:25.678Z,102084.53
2022-07-27T20:39:17.924Z,102084.59
2022-07-27T20:44:16.128Z,102087.19
2022-07-27T20:49:06.337Z,102085.53
2022-07-27T20:53:59.285Z,102082.06
2022-07-27T20:58:49.801Z,102093.41
2022-07-27T21:03:44.208Z,102090.81
2022-07-27T21:08:34.571Z,102087.31
2022-07-27T21:13:28.255Z,102069.91
2022-07-27T21:18:23.443Z,102090.81
2022-07-27T21:23:30.714Z,102094.31
2022-07-27T21:28:25.204Z,102106.44
2022-07-27T21:33:18.677Z,102108.16
2022-07-27T21:38:09.645Z,102102.03
2022-07-27T21:43:03.275Z,102099.38
2022-07-27T21:47:53.114Z,102088.09
2022-07-27T21:52:42.952Z,102088.94
2022-07-27T21:57:33.213Z,102104.63
2022-07-27T22:02:33.456Z,102099.41
2022-07-27T22:07:24.298Z,102090.72
2022-07-27T22:12:17.854Z,102087.28
2022-07-27T22:17:13.847Z,102100.28
2022-07-27T22:22:07.484Z,102092.47
2022-07-27T22:26:58.005Z,102097.72
2022-07-27T22:31:51.352Z,102101.22
2022-07-27T22:36:41.924Z,102098.66
2022-07-27T22:41:35.099Z,102109.97
2022-07-27T22:46:26.218Z,102101.31
2022-07-27T22:51:16.486Z,102106.53
2022-07-27T22:56:06.282Z,102083.94
2022-07-27T23:01:00.087Z,102100.44
2022-07-27T23:06:00.037Z,102098.72
2022-07-27T23:10:51.024Z,102104.81
2022-07-27T23:15:42.007Z,102107.44
2022-07-27T23:20:35.860Z,102101.31
2022-07-27T23:25:36.416Z,102101.31
2022-07-27T23:30:28.966Z,102106.53
2022-07-27T23:35:20.214Z,102097.84
2022-07-27T23:40:16.427Z,102085.66
2022-07-27T23:45:08.651Z,102087.47
2022-07-27T23:49:59.021Z,102077.03
2022-07-27T23:54:49.426Z,102084.03
2022-07-27T23:59:42.900Z,102080.56
